Grenora, ND (58845)

10:34 AM CDT on April 21, 2018 (GMT -0500)
MGGWKL | | Change Station
Active Advisory: Flood Warning

Elev 1997 ft 48.50 °N, 104.18 °W | Updated 56 minutes ago

Clear
Clear
43.0 °F
Feels Like 36 °F
N
13.0
Wind Variable Wind from South
Gusts 21.0 mph

Today
High -- | Low -- °F
--% Chance of Precip.
Yesterday
High -- | Low -- °F
Precip. -- in
Pressure 30.14 in
Visibility 10.0 miles
Clouds Clear
Windchill 36 °F
Dew Point 37 °F
Humidity 81%
Rainfall 0.00 in
Snow Depth Not available.
6:53 AM 8:56 PM
Waxing Crescent, 36% visible
METAR KISN 211452Z AUTO 19014G19KT 10SM CLR 09/04 A3011 RMK AO2 SLP205 T00940039 58012 TSNO
Pressure 30.14 in
Visibility 10.0 miles
Clouds Clear
Windchill 36 °F
Dew Point 37 °F
Humidity 81%
Rainfall 0.00 in
Snow Depth Not available.
6:53 AM 8:56 PM
Waxing Crescent, 36% visible
METAR KISN 211452Z AUTO 19014G19KT 10SM CLR 09/04 A3011 RMK AO2 SLP205 T00940039 58012 TSNO

Get Your Daily Forecast Email!

Thanks for signing up!

Be on the lookout for a verification email in your inbox.

You'll start receiving severe weather alerts in your inbox..

×

10-Day Weather Forecast

Almanac

Astronomy

Apr. 21, 2018 Rise Set
Actual Time
Civil Twilight
Nautical Twilight
Astronomical Twilight
Moon
Length of Visible Light
Length of Day
Tomorrow will be .
, % of the Moon is Illuminated

Today's Extremes

State Highs State Lows

Community

WunderPhotos

Category 6

Welcome to Category 6. This is the collective home for Weather Underground's featured writeups by Dr. Jeff Masters (right), Bob Henson (left), Chris Burt, and other regular contributors.

Nearby

Air Quality

  Air Quality AQ Index Pollutant
Not available.

Snow Depth

Station Depth Elevation

Earthquake Activity

City Distance Mag. Time & Date
Minimum magnitude displayed is 2.5.

Coastal Water Temperatures

Place Temperature

Stations

Nearby Weather Stations

Station Location Temp. Windchill Dew Point Humidity Wind Precip. Elev Updated Type
                   

Watches & Warnings

Flood Warning
Issued: 7:04 AM CDT Apr. 21, 2018 – National Weather Service

The National Weather Service in Bismarck has issued a

* Flood Warning for
the little Muddy river near Williston
* until this afternoon
* at 06am Saturday the stage was... 10.2 feet
* minor flooding is occurring and minor flooding is forecast
* flood stage is 10.0 feet
* the river rose above flood stage early this morning and will
continue rising to near 10.2 feet by this afternoon. The river will
fall below flood stage this evening.
* Impact... at 12.0 feet... co-8 by gage Road has water on it. Co-7b
also floods at this level. The little Muddy Recreation Area near
Williston floods.



             Fld observed forecasts (7am)
location stg stg day/time sun Mon Tue Wed Thu

Missouri River basin
Williston 10 10.2 Sat 6 am 9.8 8.8 7.2 7.0 M


Lat... Lon 4830 10369 4832 10356 4810 10358
      4811 10361 4827 10362



Waa